Keith, United Kingdom
Current Conditions -  °F | °C
As of 9:50 AM on Monday 20 Oct 2014 (Local Time) from EGQS Reporting Station
Broken Clouds Broken Clouds  
Wind Chill: 50°   Ceiling: 4000
Heat Index: 50°   Visibility: 6mi
Dew Point: 45°   Wind: 7mph
Humidity: 82%   Direction: 190°S
Pressure: 29.62"   Gusts: NA
Location:  57.54°N, 2.95°W
Report Text: EGQS 200850Z 19006KT 9999 FEW014 BKN040 10/07 Q1003 BLU NOSIG
Loading
Personal Weather Stations






























Interactive Weather Map
Tropical Storm Tracking
New forecast layout! Learn more

10-Day Weather Forecast

Advertisements
Track Severe Weather on mobile